Portada
METAR-TAF:

METAR-TAF

Aeropuertos :

Marshall, Misuri, Estados Unidos

latitud: 39-05-44N, longitud: 093-12-10W, altitud: 237 m

Observación

El informe se hizo hace 26 minutos, a las 23:15 UTC
Viento 12 kt del noroeste con ráfagas de 17 kt
Temperatura 18°C
Humedad 100%
Presión 1013 hPa
Visibilidad: 16.1 km
Nubes dispersas a una altura de 2800 ft
Cielo nuboso a una altura de 3600 ft
Cielo nuboso a una altura de 5500 ft

METAR: KMHL 282315Z AUTO 31012G17KT 10SM SCT028 BKN036 BKN055 18/18 A2990 RMK AO2 PWINO

Hora: 18:41 (23:41 UTC)


TAF: falta

Observaciones y pronósticos meteorológicos de más de 4000 aeropuertos (mensajes METAR y TAF).

Los puntos amarillos y rojos representan las estaciones disponibles.

Ponga el ratón en el punto deseado para ver el nombre de la estación.

Haga clic para ver las observaciones y los pronósticos meteorológicos.

Para cambiar el mapa : haga clic en los botones verdes con una cruz de color negro para hacer un zoom, en el botón verde con un guión para alejar o en las flechas verdes para mapas adyacentes.


METAR-TAF: